sensor_id;sensor_type;location;lat;lon;timestamp;temperature;humidity
10968;DHT22;5536;49.602;10.980;2022-08-19T00:01:21;20.20;99.90
10968;DHT22;5536;49.602;10.980;2022-08-19T00:03:49;20.30;99.90
10968;DHT22;5536;49.602;10.980;2022-08-19T00:06:17;20.30;99.90
10968;DHT22;5536;49.602;10.980;2022-08-19T00:08:44;20.30;99.90
10968;DHT22;5536;49.602;10.980;2022-08-19T00:11:11;20.30;99.90
10968;DHT22;5536;49.602;10.980;2022-08-19T00:13:39;20.30;99.90
10968;DHT22;5536;49.602;10.980;2022-08-19T00:16:06;20.20;99.90
10968;DHT22;5536;49.602;10.980;2022-08-19T00:18:34;20.20;99.90
10968;DHT22;5536;49.602;10.980;2022-08-19T00:21:02;20.20;99.90
10968;DHT22;5536;49.602;10.980;2022-08-19T00:23:35;20.10;99.90
10968;DHT22;5536;49.602;10.980;2022-08-19T00:26:03;20.10;99.90
10968;DHT22;5536;49.602;10.980;2022-08-19T00:28:30;20.10;99.90
10968;DHT22;5536;49.602;10.980;2022-08-19T00:30:58;20.00;99.90
10968;DHT22;5536;49.602;10.980;2022-08-19T00:33:25;20.10;99.90
10968;DHT22;5536;49.602;10.980;2022-08-19T00:35:54;20.10;99.90
10968;DHT22;5536;49.602;10.980;2022-08-19T00:38:23;20.20;99.90
10968;DHT22;5536;49.602;10.980;2022-08-19T00:40:50;20.20;99.90
10968;DHT22;5536;49.602;10.980;2022-08-19T00:43:19;20.30;99.90
10968;DHT22;5536;49.602;10.980;2022-08-19T00:45:47;20.30;99.90
10968;DHT22;5536;49.602;10.980;2022-08-19T00:48:16;20.40;99.90
10968;DHT22;5536;49.602;10.980;2022-08-19T00:50:43;20.50;99.90
10968;DHT22;5536;49.602;10.980;2022-08-19T00:53:12;20.50;99.90
10968;DHT22;5536;49.602;10.980;2022-08-19T00:55:45;20.60;99.90
10968;DHT22;5536;49.602;10.980;2022-08-19T00:58:15;20.60;99.90
10968;DHT22;5536;49.602;10.980;2022-08-19T01:00:43;20.50;99.90
10968;DHT22;5536;49.602;10.980;2022-08-19T01:03:12;20.60;99.90
10968;DHT22;5536;49.602;10.980;2022-08-19T01:05:42;20.50;99.90
10968;DHT22;5536;49.602;10.980;2022-08-19T01:08:10;20.60;99.90
10968;DHT22;5536;49.602;10.980;2022-08-19T01:10:41;20.80;99.90
10968;DHT22;5536;49.602;10.980;2022-08-19T01:13:11;20.80;99.90
10968;DHT22;5536;49.602;10.980;2022-08-19T01:15:43;20.80;99.90
10968;DHT22;5536;49.602;10.980;2022-08-19T01:18:14;20.70;99.90
10968;DHT22;5536;49.602;10.980;2022-08-19T01:20:42;20.60;99.90
10968;DHT22;5536;49.602;10.980;2022-08-19T01:23:12;20.60;99.90
10968;DHT22;5536;49.602;10.980;2022-08-19T01:25:42;20.60;99.90
10968;DHT22;5536;49.602;10.980;2022-08-19T01:28:15;20.70;99.90
10968;DHT22;5536;49.602;10.980;2022-08-19T01:30:43;20.70;99.90
10968;DHT22;5536;49.602;10.980;2022-08-19T01:33:12;20.60;99.90
10968;DHT22;5536;49.602;10.980;2022-08-19T01:35:40;20.60;99.90
10968;DHT22;5536;49.602;10.980;2022-08-19T01:38:19;20.60;99.90
10968;DHT22;5536;49.602;10.980;2022-08-19T01:40:46;20.50;99.90
10968;DHT22;5536;49.602;10.980;2022-08-19T01:43:13;20.50;99.90
10968;DHT22;5536;49.602;10.980;2022-08-19T01:45:41;20.60;99.90
10968;DHT22;5536;49.602;10.980;2022-08-19T01:48:08;20.60;99.90
10968;DHT22;5536;49.602;10.980;2022-08-19T01:50:36;20.50;99.90
10968;DHT22;5536;49.602;10.980;2022-08-19T01:53:05;20.40;99.90
10968;DHT22;5536;49.602;10.980;2022-08-19T01:55:36;20.30;99.90
10968;DHT22;5536;49.602;10.980;2022-08-19T01:58:05;20.30;99.90
10968;DHT22;5536;49.602;10.980;2022-08-19T02:00:32;20.30;99.90
10968;DHT22;5536;49.602;10.980;2022-08-19T02:02:59;20.30;99.90
10968;DHT22;5536;49.602;10.980;2022-08-19T02:05:27;20.30;99.90
10968;DHT22;5536;49.602;10.980;2022-08-19T02:07:55;20.40;99.90
10968;DHT22;5536;49.602;10.980;2022-08-19T02:10:22;20.40;99.90
10968;DHT22;5536;49.602;10.980;2022-08-19T02:12:51;20.40;99.90
10968;DHT22;5536;49.602;10.980;2022-08-19T02:15:20;20.30;99.90
10968;DHT22;5536;49.602;10.980;2022-08-19T02:17:47;20.20;99.90
10968;DHT22;5536;49.602;10.980;2022-08-19T02:20:15;20.30;99.90
10968;DHT22;5536;49.602;10.980;2022-08-19T02:22:43;20.30;99.90
10968;DHT22;5536;49.602;10.980;2022-08-19T02:25:11;20.30;99.90
10968;DHT22;5536;49.602;10.980;2022-08-19T02:27:38;20.30;99.90
10968;DHT22;5536;49.602;10.980;2022-08-19T02:30:13;20.30;99.90
10968;DHT22;5536;49.602;10.980;2022-08-19T02:32:41;20.40;99.90
10968;DHT22;5536;49.602;10.980;2022-08-19T02:35:09;20.50;99.90
10968;DHT22;5536;49.602;10.980;2022-08-19T02:37:36;20.50;99.90
10968;DHT22;5536;49.602;10.980;2022-08-19T02:40:21;20.60;99.90
10968;DHT22;5536;49.602;10.980;2022-08-19T02:42:48;20.50;99.90
10968;DHT22;5536;49.602;10.980;2022-08-19T02:45:16;20.50;99.90
10968;DHT22;5536;49.602;10.980;2022-08-19T02:47:43;20.50;99.90
10968;DHT22;5536;49.602;10.980;2022-08-19T02:50:11;20.40;99.90
10968;DHT22;5536;49.602;10.980;2022-08-19T02:52:38;20.50;99.90
10968;DHT22;5536;49.602;10.980;2022-08-19T02:55:06;20.50;99.90
10968;DHT22;5536;49.602;10.980;2022-08-19T02:57:33;20.50;99.90
10968;DHT22;5536;49.602;10.980;2022-08-19T03:00:03;20.50;99.90
10968;DHT22;5536;49.602;10.980;2022-08-19T03:02:32;20.20;99.90
10968;DHT22;5536;49.602;10.980;2022-08-19T03:04:59;20.10;99.90
10968;DHT22;5536;49.602;10.980;2022-08-19T03:07:27;20.30;99.90
10968;DHT22;5536;49.602;10.980;2022-08-19T03:09:54;20.20;99.90
10968;DHT22;5536;49.602;10.980;2022-08-19T03:12:21;20.30;99.90
10968;DHT22;5536;49.602;10.980;2022-08-19T03:14:48;20.20;99.90
10968;DHT22;5536;49.602;10.980;2022-08-19T03:17:16;20.20;99.90
10968;DHT22;5536;49.602;10.980;2022-08-19T03:19:45;20.30;99.90
10968;DHT22;5536;49.602;10.980;2022-08-19T03:22:12;20.30;99.90
10968;DHT22;5536;49.602;10.980;2022-08-19T03:24:39;20.40;99.90
10968;DHT22;5536;49.602;10.980;2022-08-19T03:27:06;20.40;99.90
10968;DHT22;5536;49.602;10.980;2022-08-19T03:29:36;20.50;99.90
10968;DHT22;5536;49.602;10.980;2022-08-19T03:32:05;20.50;99.90
10968;DHT22;5536;49.602;10.980;2022-08-19T03:34:34;20.50;99.90
10968;DHT22;5536;49.602;10.980;2022-08-19T03:37:06;20.40;99.90
10968;DHT22;5536;49.602;10.980;2022-08-19T03:39:35;20.40;99.90
10968;DHT22;5536;49.602;10.980;2022-08-19T03:42:03;20.40;99.90
10968;DHT22;5536;49.602;10.980;2022-08-19T03:44:31;20.40;99.90
10968;DHT22;5536;49.602;10.980;2022-08-19T03:46:59;20.40;99.90
10968;DHT22;5536;49.602;10.980;2022-08-19T03:49:29;20.30;99.90
10968;DHT22;5536;49.602;10.980;2022-08-19T03:51:58;20.30;99.90
10968;DHT22;5536;49.602;10.980;2022-08-19T03:54:27;20.20;99.90
10968;DHT22;5536;49.602;10.980;2022-08-19T03:56:55;20.10;99.90
10968;DHT22;5536;49.602;10.980;2022-08-19T03:59:27;20.10;99.90
10968;DHT22;5536;49.602;10.980;2022-08-19T04:01:55;20.10;99.90
10968;DHT22;5536;49.602;10.980;2022-08-19T04:04:23;20.10;99.90
10968;DHT22;5536;49.602;10.980;2022-08-19T04:06:51;20.00;99.90
10968;DHT22;5536;49.602;10.980;2022-08-19T04:09:19;20.10;99.90
10968;DHT22;5536;49.602;10.980;2022-08-19T04:11:50;20.10;99.90
10968;DHT22;5536;49.602;10.980;2022-08-19T04:14:22;20.10;99.90
10968;DHT22;5536;49.602;10.980;2022-08-19T04:16:50;20.00;99.90
10968;DHT22;5536;49.602;10.980;2022-08-19T04:19:19;20.00;99.90
10968;DHT22;5536;49.602;10.980;2022-08-19T04:21:48;20.00;99.90
10968;DHT22;5536;49.602;10.980;2022-08-19T04:24:16;20.00;99.90
10968;DHT22;5536;49.602;10.980;2022-08-19T04:26:44;20.00;99.90
10968;DHT22;5536;49.602;10.980;2022-08-19T04:29:14;20.00;99.90
10968;DHT22;5536;49.602;10.980;2022-08-19T04:31:44;19.90;99.90
10968;DHT22;5536;49.602;10.980;2022-08-19T04:34:13;19.90;99.90
10968;DHT22;5536;49.602;10.980;2022-08-19T04:36:43;19.90;99.90
10968;DHT22;5536;49.602;10.980;2022-08-19T04:39:13;19.90;99.90
10968;DHT22;5536;49.602;10.980;2022-08-19T04:41:41;19.90;99.90
10968;DHT22;5536;49.602;10.980;2022-08-19T04:44:27;19.90;99.90
10968;DHT22;5536;49.602;10.980;2022-08-19T04:46:56;19.90;99.90
10968;DHT22;5536;49.602;10.980;2022-08-19T04:49:24;20.00;99.90
10968;DHT22;5536;49.602;10.980;2022-08-19T04:51:53;20.00;99.90
10968;DHT22;5536;49.602;10.980;2022-08-19T04:54:22;20.00;99.90
10968;DHT22;5536;49.602;10.980;2022-08-19T04:56:51;20.00;99.90
10968;DHT22;5536;49.602;10.980;2022-08-19T04:59:19;20.00;99.90
10968;DHT22;5536;49.602;10.980;2022-08-19T05:01:48;20.10;99.90
10968;DHT22;5536;49.602;10.980;2022-08-19T05:04:18;20.20;99.90
10968;DHT22;5536;49.602;10.980;2022-08-19T05:06:46;20.20;99.90
10968;DHT22;5536;49.602;10.980;2022-08-19T05:09:14;20.20;99.90
10968;DHT22;5536;49.602;10.980;2022-08-19T05:11:43;20.00;99.90
10968;DHT22;5536;49.602;10.980;2022-08-19T05:14:11;20.10;99.90
10968;DHT22;5536;49.602;10.980;2022-08-19T05:16:40;20.10;99.90
10968;DHT22;5536;49.602;10.980;2022-08-19T05:19:08;20.30;99.90
10968;DHT22;5536;49.602;10.980;2022-08-19T05:21:53;20.40;99.90
10968;DHT22;5536;49.602;10.980;2022-08-19T05:24:38;20.50;99.90
10968;DHT22;5536;49.602;10.980;2022-08-19T05:27:05;20.60;99.90
10968;DHT22;5536;49.602;10.980;2022-08-19T05:29:33;20.50;99.90
10968;DHT22;5536;49.602;10.980;2022-08-19T05:32:01;20.50;99.90
10968;DHT22;5536;49.602;10.980;2022-08-19T05:34:32;20.40;99.90
10968;DHT22;5536;49.602;10.980;2022-08-19T05:37:00;20.40;99.90
10968;DHT22;5536;49.602;10.980;2022-08-19T05:39:29;20.50;99.90
10968;DHT22;5536;49.602;10.980;2022-08-19T05:41:59;20.50;99.90
10968;DHT22;5536;49.602;10.980;2022-08-19T05:44:29;20.40;99.90
10968;DHT22;5536;49.602;10.980;2022-08-19T05:46:57;20.50;99.90
10968;DHT22;5536;49.602;10.980;2022-08-19T05:49:26;20.40;99.90
10968;DHT22;5536;49.602;10.980;2022-08-19T05:51:55;20.40;99.90
10968;DHT22;5536;49.602;10.980;2022-08-19T05:54:23;20.30;99.90
10968;DHT22;5536;49.602;10.980;2022-08-19T05:56:51;20.30;99.90
10968;DHT22;5536;49.602;10.980;2022-08-19T05:59:19;20.30;99.90
10968;DHT22;5536;49.602;10.980;2022-08-19T06:01:49;20.30;99.90
10968;DHT22;5536;49.602;10.980;2022-08-19T06:04:18;20.30;99.90
10968;DHT22;5536;49.602;10.980;2022-08-19T06:06:46;20.30;99.90
10968;DHT22;5536;49.602;10.980;2022-08-19T06:09:14;20.40;99.90
10968;DHT22;5536;49.602;10.980;2022-08-19T06:11:43;20.40;99.90
10968;DHT22;5536;49.602;10.980;2022-08-19T06:14:13;20.30;99.90
10968;DHT22;5536;49.602;10.980;2022-08-19T06:16:42;20.30;99.90
10968;DHT22;5536;49.602;10.980;2022-08-19T06:19:12;20.30;99.90
10968;DHT22;5536;49.602;10.980;2022-08-19T06:21:42;20.30;99.90
10968;DHT22;5536;49.602;10.980;2022-08-19T06:24:12;20.40;99.90
10968;DHT22;5536;49.602;10.980;2022-08-19T06:26:42;20.50;99.90
10968;DHT22;5536;49.602;10.980;2022-08-19T06:29:11;20.50;99.90
10968;DHT22;5536;49.602;10.980;2022-08-19T06:31:41;20.60;99.90
10968;DHT22;5536;49.602;10.980;2022-08-19T06:34:09;20.70;99.90
10968;DHT22;5536;49.602;10.980;2022-08-19T06:36:38;20.70;99.90
10968;DHT22;5536;49.602;10.980;2022-08-19T06:39:08;20.80;99.90
10968;DHT22;5536;49.602;10.980;2022-08-19T06:41:37;20.80;99.90
10968;DHT22;5536;49.602;10.980;2022-08-19T06:44:06;20.80;99.90
10968;DHT22;5536;49.602;10.980;2022-08-19T06:46:33;20.80;99.90
10968;DHT22;5536;49.602;10.980;2022-08-19T06:49:01;20.90;99.90
10968;DHT22;5536;49.602;10.980;2022-08-19T06:51:28;20.80;99.90
10968;DHT22;5536;49.602;10.980;2022-08-19T06:53:57;20.90;99.90
10968;DHT22;5536;49.602;10.980;2022-08-19T06:56:26;21.00;99.90
10968;DHT22;5536;49.602;10.980;2022-08-19T06:58:56;21.10;99.90
10968;DHT22;5536;49.602;10.980;2022-08-19T07:01:25;21.20;99.90
10968;DHT22;5536;49.602;10.980;2022-08-19T07:03:52;21.40;99.90
10968;DHT22;5536;49.602;10.980;2022-08-19T07:06:20;21.40;99.90
10968;DHT22;5536;49.602;10.980;2022-08-19T07:08:47;21.20;99.90
10968;DHT22;5536;49.602;10.980;2022-08-19T07:11:16;21.20;99.90
10968;DHT22;5536;49.602;10.980;2022-08-19T07:13:44;21.30;99.90
10968;DHT22;5536;49.602;10.980;2022-08-19T07:16:15;21.20;99.90
10968;DHT22;5536;49.602;10.980;2022-08-19T07:18:44;21.20;99.90
10968;DHT22;5536;49.602;10.980;2022-08-19T07:21:14;21.20;99.90
10968;DHT22;5536;49.602;10.980;2022-08-19T07:23:43;21.20;99.90
10968;DHT22;5536;49.602;10.980;2022-08-19T07:26:12;21.30;99.90
10968;DHT22;5536;49.602;10.980;2022-08-19T07:28:40;21.40;99.90
10968;DHT22;5536;49.602;10.980;2022-08-19T07:31:10;21.50;99.90
10968;DHT22;5536;49.602;10.980;2022-08-19T07:33:38;21.50;99.90
10968;DHT22;5536;49.602;10.980;2022-08-19T07:36:09;21.50;99.90
10968;DHT22;5536;49.602;10.980;2022-08-19T07:38:39;21.50;99.90
10968;DHT22;5536;49.602;10.980;2022-08-19T07:41:07;21.60;99.90
10968;DHT22;5536;49.602;10.980;2022-08-19T07:43:35;21.50;99.90
10968;DHT22;5536;49.602;10.980;2022-08-19T07:46:03;21.50;99.90
10968;DHT22;5536;49.602;10.980;2022-08-19T07:48:30;21.50;99.90
10968;DHT22;5536;49.602;10.980;2022-08-19T07:51:00;21.50;99.90
10968;DHT22;5536;49.602;10.980;2022-08-19T07:53:31;21.30;99.90
10968;DHT22;5536;49.602;10.980;2022-08-19T07:55:59;21.40;99.90
10968;DHT22;5536;49.602;10.980;2022-08-19T07:58:31;21.40;99.90
10968;DHT22;5536;49.602;10.980;2022-08-19T08:01:00;21.30;99.90
10968;DHT22;5536;49.602;10.980;2022-08-19T08:03:28;21.40;99.90
10968;DHT22;5536;49.602;10.980;2022-08-19T08:06:09;21.40;99.90
10968;DHT22;5536;49.602;10.980;2022-08-19T08:08:54;21.40;99.90
10968;DHT22;5536;49.602;10.980;2022-08-19T08:11:49;21.40;99.90
10968;DHT22;5536;49.602;10.980;2022-08-19T08:14:18;21.40;99.90
10968;DHT22;5536;49.602;10.980;2022-08-19T08:16:46;21.40;99.90
10968;DHT22;5536;49.602;10.980;2022-08-19T08:19:13;21.50;99.90
10968;DHT22;5536;49.602;10.980;2022-08-19T08:21:41;21.60;99.90
10968;DHT22;5536;49.602;10.980;2022-08-19T08:24:13;21.60;99.90
10968;DHT22;5536;49.602;10.980;2022-08-19T08:26:41;21.70;99.90
10968;DHT22;5536;49.602;10.980;2022-08-19T08:29:09;21.80;99.90
10968;DHT22;5536;49.602;10.980;2022-08-19T08:31:39;22.00;99.90
10968;DHT22;5536;49.602;10.980;2022-08-19T08:34:06;22.00;99.90
10968;DHT22;5536;49.602;10.980;2022-08-19T08:36:39;22.10;99.90
10968;DHT22;5536;49.602;10.980;2022-08-19T08:39:07;22.10;99.90
10968;DHT22;5536;49.602;10.980;2022-08-19T08:44:13;22.10;99.90
10968;DHT22;5536;49.602;10.980;2022-08-19T08:46:44;22.20;99.90
10968;DHT22;5536;49.602;10.980;2022-08-19T08:49:24;22.10;99.90
10968;DHT22;5536;49.602;10.980;2022-08-19T08:52:02;22.00;99.90
10968;DHT22;5536;49.602;10.980;2022-08-19T08:54:33;22.20;99.90
10968;DHT22;5536;49.602;10.980;2022-08-19T08:57:04;22.40;99.90
10968;DHT22;5536;49.602;10.980;2022-08-19T08:59:36;22.60;99.90
10968;DHT22;5536;49.602;10.980;2022-08-19T09:02:04;22.60;99.90
10968;DHT22;5536;49.602;10.980;2022-08-19T09:04:31;22.70;99.90
10968;DHT22;5536;49.602;10.980;2022-08-19T09:07:11;22.70;99.90
10968;DHT22;5536;49.602;10.980;2022-08-19T09:09:45;22.70;99.90
10968;DHT22;5536;49.602;10.980;2022-08-19T09:12:18;22.50;99.90
10968;DHT22;5536;49.602;10.980;2022-08-19T09:14:52;22.30;99.90
10968;DHT22;5536;49.602;10.980;2022-08-19T09:17:22;22.20;99.90
10968;DHT22;5536;49.602;10.980;2022-08-19T09:19:58;22.10;99.90
10968;DHT22;5536;49.602;10.980;2022-08-19T09:22:27;22.10;99.90
10968;DHT22;5536;49.602;10.980;2022-08-19T09:24:54;22.00;99.90
10968;DHT22;5536;49.602;10.980;2022-08-19T09:27:23;21.90;99.90
10968;DHT22;5536;49.602;10.980;2022-08-19T09:29:53;21.80;99.90
10968;DHT22;5536;49.602;10.980;2022-08-19T09:32:21;21.90;99.90
10968;DHT22;5536;49.602;10.980;2022-08-19T09:34:49;22.00;99.90
10968;DHT22;5536;49.602;10.980;2022-08-19T09:37:18;22.00;99.90
10968;DHT22;5536;49.602;10.980;2022-08-19T09:39:45;22.00;99.90
10968;DHT22;5536;49.602;10.980;2022-08-19T09:42:13;21.90;99.90
10968;DHT22;5536;49.602;10.980;2022-08-19T09:44:40;21.90;99.90
10968;DHT22;5536;49.602;10.980;2022-08-19T09:47:11;21.90;99.90
10968;DHT22;5536;49.602;10.980;2022-08-19T09:49:39;21.90;99.90
10968;DHT22;5536;49.602;10.980;2022-08-19T09:52:08;22.00;99.90
10968;DHT22;5536;49.602;10.980;2022-08-19T09:54:36;22.00;99.90
10968;DHT22;5536;49.602;10.980;2022-08-19T09:57:03;22.00;99.90
10968;DHT22;5536;49.602;10.980;2022-08-19T09:59:30;22.20;99.90
10968;DHT22;5536;49.602;10.980;2022-08-19T10:01:57;22.30;99.90
10968;DHT22;5536;49.602;10.980;2022-08-19T10:04:26;22.50;99.90
10968;DHT22;5536;49.602;10.980;2022-08-19T10:07:13;22.50;99.90
10968;DHT22;5536;49.602;10.980;2022-08-19T10:09:41;22.60;99.90
10968;DHT22;5536;49.602;10.980;2022-08-19T10:12:08;22.60;99.90
10968;DHT22;5536;49.602;10.980;2022-08-19T10:14:35;22.50;99.90
10968;DHT22;5536;49.602;10.980;2022-08-19T10:17:03;22.50;99.90
10968;DHT22;5536;49.602;10.980;2022-08-19T10:19:31;22.50;99.90
10968;DHT22;5536;49.602;10.980;2022-08-19T10:22:03;22.60;99.90
10968;DHT22;5536;49.602;10.980;2022-08-19T10:24:31;22.70;99.90
10968;DHT22;5536;49.602;10.980;2022-08-19T10:26:59;22.70;99.90
10968;DHT22;5536;49.602;10.980;2022-08-19T10:29:29;22.70;99.90
10968;DHT22;5536;49.602;10.980;2022-08-19T10:32:01;22.70;99.90
10968;DHT22;5536;49.602;10.980;2022-08-19T10:34:30;22.70;99.90
10968;DHT22;5536;49.602;10.980;2022-08-19T10:36:58;22.60;99.90
10968;DHT22;5536;49.602;10.980;2022-08-19T10:39:26;22.50;99.90
10968;DHT22;5536;49.602;10.980;2022-08-19T10:41:55;22.50;99.90
10968;DHT22;5536;49.602;10.980;2022-08-19T10:44:23;22.60;99.90
10968;DHT22;5536;49.602;10.980;2022-08-19T10:46:50;22.50;99.90
10968;DHT22;5536;49.602;10.980;2022-08-19T10:49:18;22.60;99.90
10968;DHT22;5536;49.602;10.980;2022-08-19T10:51:47;22.60;99.90
10968;DHT22;5536;49.602;10.980;2022-08-19T10:54:32;22.60;99.90
10968;DHT22;5536;49.602;10.980;2022-08-19T10:57:17;22.60;99.90
10968;DHT22;5536;49.602;10.980;2022-08-19T10:59:44;22.50;99.90
10968;DHT22;5536;49.602;10.980;2022-08-19T11:02:12;22.60;99.90
10968;DHT22;5536;49.602;10.980;2022-08-19T11:04:40;22.60;99.90
10968;DHT22;5536;49.602;10.980;2022-08-19T11:07:09;22.60;99.90
10968;DHT22;5536;49.602;10.980;2022-08-19T11:09:39;22.60;99.90
10968;DHT22;5536;49.602;10.980;2022-08-19T11:12:07;22.50;99.90
10968;DHT22;5536;49.602;10.980;2022-08-19T11:14:35;22.50;99.90
10968;DHT22;5536;49.602;10.980;2022-08-19T11:17:03;22.50;99.90
10968;DHT22;5536;49.602;10.980;2022-08-19T11:19:31;22.40;99.90
10968;DHT22;5536;49.602;10.980;2022-08-19T11:21:59;22.40;99.90
10968;DHT22;5536;49.602;10.980;2022-08-19T11:24:29;22.30;99.90
10968;DHT22;5536;49.602;10.980;2022-08-19T11:27:02;22.30;99.90
10968;DHT22;5536;49.602;10.980;2022-08-19T11:29:30;22.20;99.90
10968;DHT22;5536;49.602;10.980;2022-08-19T11:31:58;22.10;99.90
10968;DHT22;5536;49.602;10.980;2022-08-19T11:34:28;22.10;99.90
10968;DHT22;5536;49.602;10.980;2022-08-19T11:36:56;22.10;99.90
10968;DHT22;5536;49.602;10.980;2022-08-19T11:39:26;22.10;99.90
10968;DHT22;5536;49.602;10.980;2022-08-19T11:41:55;22.10;99.90
10968;DHT22;5536;49.602;10.980;2022-08-19T11:44:22;22.10;99.90
10968;DHT22;5536;49.602;10.980;2022-08-19T11:46:49;22.00;99.90
10968;DHT22;5536;49.602;10.980;2022-08-19T11:49:19;21.90;99.90
10968;DHT22;5536;49.602;10.980;2022-08-19T11:51:47;22.00;99.90
10968;DHT22;5536;49.602;10.980;2022-08-19T11:54:15;22.00;99.90
10968;DHT22;5536;49.602;10.980;2022-08-19T11:56:44;21.90;99.90
10968;DHT22;5536;49.602;10.980;2022-08-19T11:59:15;21.80;99.90
10968;DHT22;5536;49.602;10.980;2022-08-19T12:01:42;21.70;99.90
10968;DHT22;5536;49.602;10.980;2022-08-19T12:04:09;21.50;99.90
10968;DHT22;5536;49.602;10.980;2022-08-19T12:06:39;21.20;99.90
10968;DHT22;5536;49.602;10.980;2022-08-19T12:09:08;20.90;99.90
10968;DHT22;5536;49.602;10.980;2022-08-19T12:11:36;20.70;99.90
10968;DHT22;5536;49.602;10.980;2022-08-19T12:14:05;20.40;99.90
10968;DHT22;5536;49.602;10.980;2022-08-19T12:16:34;20.30;99.90
10968;DHT22;5536;49.602;10.980;2022-08-19T12:19:03;20.30;99.90
10968;DHT22;5536;49.602;10.980;2022-08-19T12:21:32;20.30;99.90
10968;DHT22;5536;49.602;10.980;2022-08-19T12:24:00;20.20;99.90
10968;DHT22;5536;49.602;10.980;2022-08-19T12:26:30;20.10;99.90
10968;DHT22;5536;49.602;10.980;2022-08-19T12:28:58;20.20;99.90
10968;DHT22;5536;49.602;10.980;2022-08-19T12:31:26;20.20;99.90
10968;DHT22;5536;49.602;10.980;2022-08-19T12:33:54;20.20;99.90
10968;DHT22;5536;49.602;10.980;2022-08-19T12:36:23;20.10;99.90
10968;DHT22;5536;49.602;10.980;2022-08-19T12:38:51;20.20;99.90
10968;DHT22;5536;49.602;10.980;2022-08-19T12:41:19;20.20;99.90
10968;DHT22;5536;49.602;10.980;2022-08-19T12:43:47;20.30;99.90
10968;DHT22;5536;49.602;10.980;2022-08-19T12:46:15;20.40;99.90
10968;DHT22;5536;49.602;10.980;2022-08-19T12:48:42;20.40;99.90
10968;DHT22;5536;49.602;10.980;2022-08-19T12:51:14;20.40;99.90
10968;DHT22;5536;49.602;10.980;2022-08-19T12:53:43;20.40;99.90
10968;DHT22;5536;49.602;10.980;2022-08-19T12:56:12;20.40;99.90
10968;DHT22;5536;49.602;10.980;2022-08-19T12:58:42;20.40;99.90
10968;DHT22;5536;49.602;10.980;2022-08-19T13:01:11;20.30;99.90
10968;DHT22;5536;49.602;10.980;2022-08-19T13:03:39;20.40;99.90
10968;DHT22;5536;49.602;10.980;2022-08-19T13:06:07;20.30;99.90
10968;DHT22;5536;49.602;10.980;2022-08-19T13:08:36;20.40;99.90
10968;DHT22;5536;49.602;10.980;2022-08-19T13:11:08;20.30;99.90
10968;DHT22;5536;49.602;10.980;2022-08-19T13:13:36;20.30;99.90
10968;DHT22;5536;49.602;10.980;2022-08-19T13:16:07;20.40;99.90
10968;DHT22;5536;49.602;10.980;2022-08-19T13:18:35;20.40;99.90
10968;DHT22;5536;49.602;10.980;2022-08-19T13:21:03;20.40;99.90
10968;DHT22;5536;49.602;10.980;2022-08-19T13:23:32;20.40;99.90
10968;DHT22;5536;49.602;10.980;2022-08-19T13:26:03;20.40;99.90
10968;DHT22;5536;49.602;10.980;2022-08-19T13:28:31;20.40;99.90
10968;DHT22;5536;49.602;10.980;2022-08-19T13:31:15;20.40;99.90
10968;DHT22;5536;49.602;10.980;2022-08-19T13:34:00;20.50;99.90
10968;DHT22;5536;49.602;10.980;2022-08-19T13:36:27;20.50;99.90
10968;DHT22;5536;49.602;10.980;2022-08-19T13:38:54;20.60;99.90
10968;DHT22;5536;49.602;10.980;2022-08-19T13:41:25;20.60;99.90
10968;DHT22;5536;49.602;10.980;2022-08-19T13:44:02;20.50;99.90
10968;DHT22;5536;49.602;10.980;2022-08-19T13:46:35;20.50;99.90
10968;DHT22;5536;49.602;10.980;2022-08-19T13:49:10;20.50;99.90
10968;DHT22;5536;49.602;10.980;2022-08-19T13:51:38;20.50;99.90
10968;DHT22;5536;49.602;10.980;2022-08-19T13:54:06;20.40;99.90
10968;DHT22;5536;49.602;10.980;2022-08-19T13:56:39;20.30;99.90
10968;DHT22;5536;49.602;10.980;2022-08-19T13:59:06;20.30;99.90
10968;DHT22;5536;49.602;10.980;2022-08-19T14:01:34;20.20;99.90
10968;DHT22;5536;49.602;10.980;2022-08-19T14:04:02;20.10;99.90
10968;DHT22;5536;49.602;10.980;2022-08-19T14:06:31;20.10;99.90
10968;DHT22;5536;49.602;10.980;2022-08-19T14:08:58;20.00;99.90
10968;DHT22;5536;49.602;10.980;2022-08-19T14:11:27;19.90;99.90
10968;DHT22;5536;49.602;10.980;2022-08-19T14:13:56;19.90;99.90
10968;DHT22;5536;49.602;10.980;2022-08-19T14:16:25;19.90;99.90
10968;DHT22;5536;49.602;10.980;2022-08-19T14:18:52;19.90;99.90
10968;DHT22;5536;49.602;10.980;2022-08-19T14:21:22;19.90;99.90
10968;DHT22;5536;49.602;10.980;2022-08-19T14:23:51;19.90;99.90
10968;DHT22;5536;49.602;10.980;2022-08-19T14:26:20;19.90;99.90
10968;DHT22;5536;49.602;10.980;2022-08-19T14:28:49;20.00;99.90
10968;DHT22;5536;49.602;10.980;2022-08-19T14:31:20;19.90;99.90
10968;DHT22;5536;49.602;10.980;2022-08-19T14:33:50;19.90;99.90
10968;DHT22;5536;49.602;10.980;2022-08-19T14:36:24;19.90;99.90
10968;DHT22;5536;49.602;10.980;2022-08-19T14:38:52;19.90;99.90
10968;DHT22;5536;49.602;10.980;2022-08-19T14:41:21;20.00;99.90
10968;DHT22;5536;49.602;10.980;2022-08-19T14:43:51;20.00;99.90
10968;DHT22;5536;49.602;10.980;2022-08-19T14:46:21;20.00;99.90
10968;DHT22;5536;49.602;10.980;2022-08-19T14:48:49;20.00;99.90
10968;DHT22;5536;49.602;10.980;2022-08-19T14:51:17;20.00;99.90
10968;DHT22;5536;49.602;10.980;2022-08-19T14:53:45;20.00;99.90
10968;DHT22;5536;49.602;10.980;2022-08-19T14:56:17;20.10;99.90
10968;DHT22;5536;49.602;10.980;2022-08-19T14:58:45;20.10;99.90
10968;DHT22;5536;49.602;10.980;2022-08-19T15:01:22;20.00;99.90
10968;DHT22;5536;49.602;10.980;2022-08-19T15:03:50;19.90;99.90
10968;DHT22;5536;49.602;10.980;2022-08-19T15:06:18;19.90;99.90
10968;DHT22;5536;49.602;10.980;2022-08-19T15:08:54;19.90;99.90
10968;DHT22;5536;49.602;10.980;2022-08-19T15:11:24;19.90;99.90
10968;DHT22;5536;49.602;10.980;2022-08-19T15:13:52;19.90;99.90
10968;DHT22;5536;49.602;10.980;2022-08-19T15:16:23;19.80;99.90
10968;DHT22;5536;49.602;10.980;2022-08-19T15:18:54;19.70;99.90
10968;DHT22;5536;49.602;10.980;2022-08-19T15:21:28;19.70;99.90
10968;DHT22;5536;49.602;10.980;2022-08-19T15:24:29;19.70;99.90
10968;DHT22;5536;49.602;10.980;2022-08-19T15:27:01;19.50;99.90
10968;DHT22;5536;49.602;10.980;2022-08-19T15:29:28;19.40;99.90
10968;DHT22;5536;49.602;10.980;2022-08-19T15:31:58;19.30;99.90
10968;DHT22;5536;49.602;10.980;2022-08-19T15:34:25;19.30;99.90
10968;DHT22;5536;49.602;10.980;2022-08-19T15:36:54;19.20;99.90
10968;DHT22;5536;49.602;10.980;2022-08-19T15:39:23;19.20;99.90
10968;DHT22;5536;49.602;10.980;2022-08-19T15:41:50;19.20;99.90
10968;DHT22;5536;49.602;10.980;2022-08-19T15:44:19;19.20;99.90
10968;DHT22;5536;49.602;10.980;2022-08-19T15:46:48;19.10;99.90